sensor_id;sensor_type;location;lat;lon;timestamp;temperature;humidity
78649;DHT22;67962;47.310;9.642;2023-03-14T00:02:09;14.10;64.20
78649;DHT22;67962;47.310;9.642;2023-03-14T00:04:35;14.00;64.90
78649;DHT22;67962;47.310;9.642;2023-03-14T00:07:01;13.90;65.10
78649;DHT22;67962;47.310;9.642;2023-03-14T00:09:27;13.70;64.90
78649;DHT22;67962;47.310;9.642;2023-03-14T00:11:55;13.60;65.30
78649;DHT22;67962;47.310;9.642;2023-03-14T00:14:21;13.40;66.20
78649;DHT22;67962;47.310;9.642;2023-03-14T00:16:46;13.40;67.10
78649;DHT22;67962;47.310;9.642;2023-03-14T00:19:12;13.40;67.80
78649;DHT22;67962;47.310;9.642;2023-03-14T00:21:38;13.40;67.10
78649;DHT22;67962;47.310;9.642;2023-03-14T00:24:04;13.30;67.90
78649;DHT22;67962;47.310;9.642;2023-03-14T00:26:31;13.10;67.60
78649;DHT22;67962;47.310;9.642;2023-03-14T00:28:57;13.00;67.50
78649;DHT22;67962;47.310;9.642;2023-03-14T00:31:23;12.90;67.30
78649;DHT22;67962;47.310;9.642;2023-03-14T00:33:51;12.80;67.30
78649;DHT22;67962;47.310;9.642;2023-03-14T00:36:17;12.80;68.00
78649;DHT22;67962;47.310;9.642;2023-03-14T00:38:45;12.90;68.60
78649;DHT22;67962;47.310;9.642;2023-03-14T00:41:14;12.90;69.30
78649;DHT22;67962;47.310;9.642;2023-03-14T00:43:40;12.70;70.00
78649;DHT22;67962;47.310;9.642;2023-03-14T00:46:06;12.60;70.10
78649;DHT22;67962;47.310;9.642;2023-03-14T00:48:32;12.60;70.00
78649;DHT22;67962;47.310;9.642;2023-03-14T00:50:58;12.50;69.30
78649;DHT22;67962;47.310;9.642;2023-03-14T00:53:24;12.50;69.70
78649;DHT22;67962;47.310;9.642;2023-03-14T00:55:50;12.50;70.40
78649;DHT22;67962;47.310;9.642;2023-03-14T00:58:17;12.30;70.30
78649;DHT22;67962;47.310;9.642;2023-03-14T01:00:44;12.30;70.60
78649;DHT22;67962;47.310;9.642;2023-03-14T01:03:11;12.30;70.00
78649;DHT22;67962;47.310;9.642;2023-03-14T01:05:38;12.30;70.40
78649;DHT22;67962;47.310;9.642;2023-03-14T01:08:04;12.30;68.50
78649;DHT22;67962;47.310;9.642;2023-03-14T01:10:31;12.20;69.00
78649;DHT22;67962;47.310;9.642;2023-03-14T01:12:56;12.10;68.40
78649;DHT22;67962;47.310;9.642;2023-03-14T01:15:22;12.10;68.70
78649;DHT22;67962;47.310;9.642;2023-03-14T01:17:48;11.90;68.50
78649;DHT22;67962;47.310;9.642;2023-03-14T01:20:15;11.90;69.60
78649;DHT22;67962;47.310;9.642;2023-03-14T01:22:41;11.80;69.50
78649;DHT22;67962;47.310;9.642;2023-03-14T01:25:09;11.80;69.40
78649;DHT22;67962;47.310;9.642;2023-03-14T01:27:35;11.80;68.80
78649;DHT22;67962;47.310;9.642;2023-03-14T01:30:01;11.70;68.30
78649;DHT22;67962;47.310;9.642;2023-03-14T01:32:28;11.70;68.30
78649;DHT22;67962;47.310;9.642;2023-03-14T01:34:53;11.70;67.90
78649;DHT22;67962;47.310;9.642;2023-03-14T01:37:19;11.70;67.80
78649;DHT22;67962;47.310;9.642;2023-03-14T01:39:46;11.50;67.60
78649;DHT22;67962;47.310;9.642;2023-03-14T01:42:13;11.40;68.50
78649;DHT22;67962;47.310;9.642;2023-03-14T01:44:55;11.40;69.10
78649;DHT22;67962;47.310;9.642;2023-03-14T01:47:22;11.40;69.00
78649;DHT22;67962;47.310;9.642;2023-03-14T01:49:51;11.20;69.00
78649;DHT22;67962;47.310;9.642;2023-03-14T01:52:30;11.30;68.80
78649;DHT22;67962;47.310;9.642;2023-03-14T01:55:03;11.30;67.90
78649;DHT22;67962;47.310;9.642;2023-03-14T01:57:35;11.40;68.60
78649;DHT22;67962;47.310;9.642;2023-03-14T02:00:17;11.30;68.50
78649;DHT22;67962;47.310;9.642;2023-03-14T02:02:49;11.30;69.00
78649;DHT22;67962;47.310;9.642;2023-03-14T02:05:18;11.30;69.20
78649;DHT22;67962;47.310;9.642;2023-03-14T02:07:53;11.30;68.90
78649;DHT22;67962;47.310;9.642;2023-03-14T02:10:23;11.30;69.30
78649;DHT22;67962;47.310;9.642;2023-03-14T02:12:50;11.20;69.50
78649;DHT22;67962;47.310;9.642;2023-03-14T02:15:17;11.20;70.20
78649;DHT22;67962;47.310;9.642;2023-03-14T02:17:44;11.30;70.00
78649;DHT22;67962;47.310;9.642;2023-03-14T02:22:58;11.50;69.40
78649;DHT22;67962;47.310;9.642;2023-03-14T02:28:17;11.40;70.00
78649;DHT22;67962;47.310;9.642;2023-03-14T02:30:43;11.30;70.90
78649;DHT22;67962;47.310;9.642;2023-03-14T02:33:12;11.30;70.80
78649;DHT22;67962;47.310;9.642;2023-03-14T02:35:50;11.30;71.10
78649;DHT22;67962;47.310;9.642;2023-03-14T02:38:40;11.40;71.10
78649;DHT22;67962;47.310;9.642;2023-03-14T02:41:09;11.40;71.80
78649;DHT22;67962;47.310;9.642;2023-03-14T02:43:34;11.50;70.40
78649;DHT22;67962;47.310;9.642;2023-03-14T02:46:01;11.50;70.10
78649;DHT22;67962;47.310;9.642;2023-03-14T02:48:35;11.50;69.70
78649;DHT22;67962;47.310;9.642;2023-03-14T02:51:03;11.50;69.00
78649;DHT22;67962;47.310;9.642;2023-03-14T02:53:32;11.50;68.70
78649;DHT22;67962;47.310;9.642;2023-03-14T02:55:58;11.50;68.40
78649;DHT22;67962;47.310;9.642;2023-03-14T02:58:24;11.50;68.10
78649;DHT22;67962;47.310;9.642;2023-03-14T03:00:50;11.50;68.00
78649;DHT22;67962;47.310;9.642;2023-03-14T03:03:16;11.60;68.10
78649;DHT22;67962;47.310;9.642;2023-03-14T03:05:41;11.50;67.80
78649;DHT22;67962;47.310;9.642;2023-03-14T03:08:10;11.60;68.10
78649;DHT22;67962;47.310;9.642;2023-03-14T03:10:36;11.50;69.50
78649;DHT22;67962;47.310;9.642;2023-03-14T03:13:02;11.40;69.70
78649;DHT22;67962;47.310;9.642;2023-03-14T03:15:29;11.40;70.30
78649;DHT22;67962;47.310;9.642;2023-03-14T03:17:55;11.30;70.50
78649;DHT22;67962;47.310;9.642;2023-03-14T03:20:20;11.20;70.70
78649;DHT22;67962;47.310;9.642;2023-03-14T03:22:46;11.20;70.40
78649;DHT22;67962;47.310;9.642;2023-03-14T03:25:12;11.30;70.40
78649;DHT22;67962;47.310;9.642;2023-03-14T03:27:38;11.30;70.10
78649;DHT22;67962;47.310;9.642;2023-03-14T03:30:05;11.50;69.70
78649;DHT22;67962;47.310;9.642;2023-03-14T03:32:31;11.50;69.40
78649;DHT22;67962;47.310;9.642;2023-03-14T03:34:57;11.50;69.60
78649;DHT22;67962;47.310;9.642;2023-03-14T03:37:23;11.50;69.80
78649;DHT22;67962;47.310;9.642;2023-03-14T03:39:50;11.50;69.60
78649;DHT22;67962;47.310;9.642;2023-03-14T03:42:17;11.50;69.60
78649;DHT22;67962;47.310;9.642;2023-03-14T03:44:43;11.50;69.80
78649;DHT22;67962;47.310;9.642;2023-03-14T03:47:09;11.40;70.00
78649;DHT22;67962;47.310;9.642;2023-03-14T03:49:35;11.40;70.00
78649;DHT22;67962;47.310;9.642;2023-03-14T03:52:00;11.40;70.20
78649;DHT22;67962;47.310;9.642;2023-03-14T03:54:26;11.30;70.10
78649;DHT22;67962;47.310;9.642;2023-03-14T03:56:54;11.40;70.20
78649;DHT22;67962;47.310;9.642;2023-03-14T03:59:19;11.40;70.30
78649;DHT22;67962;47.310;9.642;2023-03-14T04:01:45;11.40;70.40
78649;DHT22;67962;47.310;9.642;2023-03-14T04:04:11;11.50;70.30
78649;DHT22;67962;47.310;9.642;2023-03-14T04:06:37;11.50;70.30
78649;DHT22;67962;47.310;9.642;2023-03-14T04:09:03;11.50;71.00
78649;DHT22;67962;47.310;9.642;2023-03-14T04:11:29;11.50;69.90
78649;DHT22;67962;47.310;9.642;2023-03-14T04:13:55;11.60;69.90
78649;DHT22;67962;47.310;9.642;2023-03-14T04:16:23;11.60;69.80
78649;DHT22;67962;47.310;9.642;2023-03-14T04:18:51;11.60;69.70
78649;DHT22;67962;47.310;9.642;2023-03-14T04:21:17;11.60;69.60
78649;DHT22;67962;47.310;9.642;2023-03-14T04:23:43;11.60;69.60
78649;DHT22;67962;47.310;9.642;2023-03-14T04:26:09;11.60;69.50
78649;DHT22;67962;47.310;9.642;2023-03-14T04:28:35;11.60;69.60
78649;DHT22;67962;47.310;9.642;2023-03-14T04:31:16;11.50;69.60
78649;DHT22;67962;47.310;9.642;2023-03-14T04:33:42;11.50;69.70
78649;DHT22;67962;47.310;9.642;2023-03-14T04:36:08;11.50;69.40
78649;DHT22;67962;47.310;9.642;2023-03-14T04:38:34;11.40;68.90
78649;DHT22;67962;47.310;9.642;2023-03-14T04:41:00;11.40;68.80
78649;DHT22;67962;47.310;9.642;2023-03-14T04:43:27;11.30;68.60
78649;DHT22;67962;47.310;9.642;2023-03-14T04:45:57;11.30;69.10
78649;DHT22;67962;47.310;9.642;2023-03-14T04:48:24;11.20;69.20
78649;DHT22;67962;47.310;9.642;2023-03-14T04:50:50;11.20;69.60
78649;DHT22;67962;47.310;9.642;2023-03-14T04:53:17;11.20;69.70
78649;DHT22;67962;47.310;9.642;2023-03-14T04:55:47;11.10;69.90
78649;DHT22;67962;47.310;9.642;2023-03-14T04:58:13;11.10;70.10
78649;DHT22;67962;47.310;9.642;2023-03-14T05:00:38;11.00;70.30
78649;DHT22;67962;47.310;9.642;2023-03-14T05:03:04;11.10;70.40
78649;DHT22;67962;47.310;9.642;2023-03-14T05:05:30;11.10;70.40
78649;DHT22;67962;47.310;9.642;2023-03-14T05:07:55;11.10;70.40
78649;DHT22;67962;47.310;9.642;2023-03-14T05:10:21;11.10;70.60
78649;DHT22;67962;47.310;9.642;2023-03-14T05:12:47;11.10;70.10
78649;DHT22;67962;47.310;9.642;2023-03-14T05:15:12;11.10;69.80
78649;DHT22;67962;47.310;9.642;2023-03-14T05:17:38;11.10;69.80
78649;DHT22;67962;47.310;9.642;2023-03-14T05:20:04;11.10;69.70
78649;DHT22;67962;47.310;9.642;2023-03-14T05:22:39;11.10;69.70
78649;DHT22;67962;47.310;9.642;2023-03-14T05:25:06;11.10;69.90
78649;DHT22;67962;47.310;9.642;2023-03-14T05:27:32;11.10;70.30
78649;DHT22;67962;47.310;9.642;2023-03-14T05:29:58;11.10;70.80
78649;DHT22;67962;47.310;9.642;2023-03-14T05:32:24;11.00;71.20
78649;DHT22;67962;47.310;9.642;2023-03-14T05:34:50;10.90;71.40
78649;DHT22;67962;47.310;9.642;2023-03-14T05:37:15;10.80;71.70
78649;DHT22;67962;47.310;9.642;2023-03-14T05:39:41;10.80;71.70
78649;DHT22;67962;47.310;9.642;2023-03-14T05:42:07;10.70;72.00
78649;DHT22;67962;47.310;9.642;2023-03-14T05:44:32;10.70;72.10
78649;DHT22;67962;47.310;9.642;2023-03-14T05:46:58;10.60;72.00
78649;DHT22;67962;47.310;9.642;2023-03-14T05:49:24;10.60;72.00
78649;DHT22;67962;47.310;9.642;2023-03-14T05:51:51;10.60;71.80
78649;DHT22;67962;47.310;9.642;2023-03-14T05:54:16;10.70;71.30
78649;DHT22;67962;47.310;9.642;2023-03-14T05:56:42;10.80;71.00
78649;DHT22;67962;47.310;9.642;2023-03-14T05:59:08;10.80;71.70
78649;DHT22;67962;47.310;9.642;2023-03-14T06:01:34;10.80;70.60
78649;DHT22;67962;47.310;9.642;2023-03-14T06:04:00;10.70;70.70
78649;DHT22;67962;47.310;9.642;2023-03-14T06:06:25;10.70;71.10
78649;DHT22;67962;47.310;9.642;2023-03-14T06:08:51;10.60;71.20
78649;DHT22;67962;47.310;9.642;2023-03-14T06:11:17;10.60;70.80
78649;DHT22;67962;47.310;9.642;2023-03-14T06:13:42;10.50;71.10
78649;DHT22;67962;47.310;9.642;2023-03-14T06:16:09;10.60;71.30
78649;DHT22;67962;47.310;9.642;2023-03-14T06:18:34;10.60;71.50
78649;DHT22;67962;47.310;9.642;2023-03-14T06:21:00;10.60;71.40
78649;DHT22;67962;47.310;9.642;2023-03-14T06:23:26;10.70;71.40
78649;DHT22;67962;47.310;9.642;2023-03-14T06:25:51;10.70;71.50
78649;DHT22;67962;47.310;9.642;2023-03-14T06:28:17;10.70;71.20
78649;DHT22;67962;47.310;9.642;2023-03-14T06:30:43;10.70;70.70
78649;DHT22;67962;47.310;9.642;2023-03-14T06:33:09;10.70;70.60
78649;DHT22;67962;47.310;9.642;2023-03-14T06:35:34;10.70;70.70
78649;DHT22;67962;47.310;9.642;2023-03-14T06:38:00;10.70;70.20
78649;DHT22;67962;47.310;9.642;2023-03-14T06:40:26;10.70;70.20
78649;DHT22;67962;47.310;9.642;2023-03-14T06:42:52;10.70;69.90
78649;DHT22;67962;47.310;9.642;2023-03-14T06:45:17;10.70;70.00
78649;DHT22;67962;47.310;9.642;2023-03-14T06:47:43;10.70;70.00
78649;DHT22;67962;47.310;9.642;2023-03-14T06:50:09;10.80;69.90
78649;DHT22;67962;47.310;9.642;2023-03-14T06:52:35;10.80;69.60
78649;DHT22;67962;47.310;9.642;2023-03-14T06:55:01;10.80;69.80
78649;DHT22;67962;47.310;9.642;2023-03-14T06:57:27;10.90;70.40
78649;DHT22;67962;47.310;9.642;2023-03-14T06:59:53;11.00;70.00
78649;DHT22;67962;47.310;9.642;2023-03-14T07:02:18;11.00;70.50
78649;DHT22;67962;47.310;9.642;2023-03-14T07:04:44;11.00;69.90
78649;DHT22;67962;47.310;9.642;2023-03-14T07:07:10;11.00;70.20
78649;DHT22;67962;47.310;9.642;2023-03-14T07:09:36;11.00;70.40
78649;DHT22;67962;47.310;9.642;2023-03-14T07:12:02;10.90;70.60
78649;DHT22;67962;47.310;9.642;2023-03-14T07:14:29;10.90;70.80
78649;DHT22;67962;47.310;9.642;2023-03-14T07:16:55;10.90;70.90
78649;DHT22;67962;47.310;9.642;2023-03-14T07:19:21;10.90;70.90
78649;DHT22;67962;47.310;9.642;2023-03-14T07:21:47;11.00;70.70
78649;DHT22;67962;47.310;9.642;2023-03-14T07:24:12;11.00;70.70
78649;DHT22;67962;47.310;9.642;2023-03-14T07:26:38;11.10;70.30
78649;DHT22;67962;47.310;9.642;2023-03-14T07:29:04;11.20;69.60
78649;DHT22;67962;47.310;9.642;2023-03-14T07:31:30;11.20;69.10
78649;DHT22;67962;47.310;9.642;2023-03-14T07:33:57;11.20;69.20
78649;DHT22;67962;47.310;9.642;2023-03-14T07:36:23;11.30;69.50
78649;DHT22;67962;47.310;9.642;2023-03-14T07:38:49;11.40;69.30
78649;DHT22;67962;47.310;9.642;2023-03-14T07:41:15;11.40;68.60
78649;DHT22;67962;47.310;9.642;2023-03-14T07:43:40;11.50;69.00
78649;DHT22;67962;47.310;9.642;2023-03-14T07:46:06;11.50;68.70
78649;DHT22;67962;47.310;9.642;2023-03-14T07:48:33;11.70;68.60
78649;DHT22;67962;47.310;9.642;2023-03-14T07:50:58;11.80;68.10
78649;DHT22;67962;47.310;9.642;2023-03-14T07:53:24;11.90;67.90
78649;DHT22;67962;47.310;9.642;2023-03-14T07:55:51;11.90;67.70
78649;DHT22;67962;47.310;9.642;2023-03-14T07:58:17;12.00;68.50
78649;DHT22;67962;47.310;9.642;2023-03-14T08:00:44;12.00;67.60
78649;DHT22;67962;47.310;9.642;2023-03-14T08:03:09;12.00;67.30
78649;DHT22;67962;47.310;9.642;2023-03-14T08:05:36;12.10;66.90
78649;DHT22;67962;47.310;9.642;2023-03-14T08:08:03;12.10;67.00
78649;DHT22;67962;47.310;9.642;2023-03-14T08:10:28;12.30;66.80
78649;DHT22;67962;47.310;9.642;2023-03-14T08:12:56;12.30;66.80
78649;DHT22;67962;47.310;9.642;2023-03-14T08:15:23;12.40;66.80
78649;DHT22;67962;47.310;9.642;2023-03-14T08:17:49;12.40;65.90
78649;DHT22;67962;47.310;9.642;2023-03-14T08:20:17;12.50;66.40
78649;DHT22;67962;47.310;9.642;2023-03-14T08:22:43;12.60;66.90
78649;DHT22;67962;47.310;9.642;2023-03-14T08:25:09;12.70;66.80
78649;DHT22;67962;47.310;9.642;2023-03-14T08:27:36;12.70;66.30
78649;DHT22;67962;47.310;9.642;2023-03-14T08:30:05;12.70;66.40
78649;DHT22;67962;47.310;9.642;2023-03-14T08:32:31;12.70;66.40
78649;DHT22;67962;47.310;9.642;2023-03-14T08:34:57;12.80;66.00
78649;DHT22;67962;47.310;9.642;2023-03-14T08:37:23;12.90;65.90
78649;DHT22;67962;47.310;9.642;2023-03-14T08:39:50;13.00;65.70
78649;DHT22;67962;47.310;9.642;2023-03-14T08:42:16;13.20;65.40
78649;DHT22;67962;47.310;9.642;2023-03-14T08:44:42;13.30;64.90
78649;DHT22;67962;47.310;9.642;2023-03-14T08:47:08;13.40;64.70
78649;DHT22;67962;47.310;9.642;2023-03-14T08:49:34;13.50;64.60
78649;DHT22;67962;47.310;9.642;2023-03-14T08:52:02;13.50;64.70
78649;DHT22;67962;47.310;9.642;2023-03-14T08:54:27;13.70;64.60
78649;DHT22;67962;47.310;9.642;2023-03-14T08:56:53;14.00;64.20
78649;DHT22;67962;47.310;9.642;2023-03-14T08:59:19;14.50;63.50
78649;DHT22;67962;47.310;9.642;2023-03-14T09:01:44;14.80;62.30
78649;DHT22;67962;47.310;9.642;2023-03-14T09:04:10;14.90;61.80
78649;DHT22;67962;47.310;9.642;2023-03-14T09:06:36;15.00;61.50
78649;DHT22;67962;47.310;9.642;2023-03-14T09:09:02;14.90;60.00
78649;DHT22;67962;47.310;9.642;2023-03-14T09:11:28;14.80;60.80
78649;DHT22;67962;47.310;9.642;2023-03-14T09:13:53;14.60;61.50
78649;DHT22;67962;47.310;9.642;2023-03-14T09:16:19;14.70;61.30
78649;DHT22;67962;47.310;9.642;2023-03-14T09:18:45;14.60;60.60
78649;DHT22;67962;47.310;9.642;2023-03-14T09:21:11;14.60;61.00
78649;DHT22;67962;47.310;9.642;2023-03-14T09:23:36;14.60;60.40
78649;DHT22;67962;47.310;9.642;2023-03-14T09:26:02;14.50;60.50
78649;DHT22;67962;47.310;9.642;2023-03-14T09:28:28;14.50;61.50
78649;DHT22;67962;47.310;9.642;2023-03-14T09:30:54;14.40;61.50
78649;DHT22;67962;47.310;9.642;2023-03-14T09:33:20;14.30;61.00
78649;DHT22;67962;47.310;9.642;2023-03-14T09:35:46;14.30;59.40
78649;DHT22;67962;47.310;9.642;2023-03-14T09:38:12;14.20;59.20
78649;DHT22;67962;47.310;9.642;2023-03-14T09:40:38;14.30;60.50
78649;DHT22;67962;47.310;9.642;2023-03-14T09:43:05;14.40;60.30
78649;DHT22;67962;47.310;9.642;2023-03-14T09:45:36;14.60;60.00
78649;DHT22;67962;47.310;9.642;2023-03-14T09:48:04;14.60;59.30
78649;DHT22;67962;47.310;9.642;2023-03-14T09:50:40;14.60;57.70
78649;DHT22;67962;47.310;9.642;2023-03-14T09:53:14;14.50;58.10
78649;DHT22;67962;47.310;9.642;2023-03-14T09:55:42;14.60;58.80
78649;DHT22;67962;47.310;9.642;2023-03-14T09:58:12;14.60;58.50
78649;DHT22;67962;47.310;9.642;2023-03-14T10:00:39;14.60;59.10
78649;DHT22;67962;47.310;9.642;2023-03-14T10:03:26;14.70;59.30
78649;DHT22;67962;47.310;9.642;2023-03-14T10:05:55;14.70;58.10
78649;DHT22;67962;47.310;9.642;2023-03-14T10:08:21;14.70;58.60
78649;DHT22;67962;47.310;9.642;2023-03-14T10:10:47;14.60;57.90
78649;DHT22;67962;47.310;9.642;2023-03-14T10:13:25;14.50;58.00
78649;DHT22;67962;47.310;9.642;2023-03-14T10:16:04;14.50;58.50
78649;DHT22;67962;47.310;9.642;2023-03-14T10:18:34;14.50;58.50
78649;DHT22;67962;47.310;9.642;2023-03-14T10:21:21;14.50;57.40
78649;DHT22;67962;47.310;9.642;2023-03-14T10:23:51;14.30;58.00
78649;DHT22;67962;47.310;9.642;2023-03-14T10:26:27;14.30;57.50
78649;DHT22;67962;47.310;9.642;2023-03-14T10:29:02;14.30;57.70
78649;DHT22;67962;47.310;9.642;2023-03-14T10:34:39;14.10;58.40
78649;DHT22;67962;47.310;9.642;2023-03-14T10:37:24;14.10;59.50
78649;DHT22;67962;47.310;9.642;2023-03-14T10:39:54;14.10;59.10
78649;DHT22;67962;47.310;9.642;2023-03-14T10:42:28;14.10;58.50
78649;DHT22;67962;47.310;9.642;2023-03-14T10:45:03;14.00;58.10
78649;DHT22;67962;47.310;9.642;2023-03-14T10:47:32;14.00;58.20
78649;DHT22;67962;47.310;9.642;2023-03-14T10:52:49;14.00;57.40
78649;DHT22;67962;47.310;9.642;2023-03-14T10:55:16;13.90;58.30
78649;DHT22;67962;47.310;9.642;2023-03-14T10:57:43;13.90;58.90
78649;DHT22;67962;47.310;9.642;2023-03-14T11:00:15;14.00;59.60
78649;DHT22;67962;47.310;9.642;2023-03-14T11:03:11;14.10;59.70
78649;DHT22;67962;47.310;9.642;2023-03-14T11:10:42;14.20;58.80
78649;DHT22;67962;47.310;9.642;2023-03-14T11:19:17;14.30;55.70
78649;DHT22;67962;47.310;9.642;2023-03-14T11:22:14;14.30;56.20
78649;DHT22;67962;47.310;9.642;2023-03-14T11:25:04;14.30;56.00
78649;DHT22;67962;47.310;9.642;2023-03-14T11:27:52;14.40;56.50
78649;DHT22;67962;47.310;9.642;2023-03-14T11:38:49;14.30;55.40
78649;DHT22;67962;47.310;9.642;2023-03-14T11:43:55;14.30;55.10
78649;DHT22;67962;47.310;9.642;2023-03-14T11:46:47;14.40;55.00
78649;DHT22;67962;47.310;9.642;2023-03-14T11:49:38;14.40;55.90
78649;DHT22;67962;47.310;9.642;2023-03-14T11:52:13;14.50;56.50
78649;DHT22;67962;47.310;9.642;2023-03-14T11:55:28;14.40;55.40
78649;DHT22;67962;47.310;9.642;2023-03-14T11:57:34;14.40;55.20
78649;DHT22;67962;47.310;9.642;2023-03-14T12:02:45;14.40;56.50
78649;DHT22;67962;47.310;9.642;2023-03-14T12:05:39;14.40;56.80
78649;DHT22;67962;47.310;9.642;2023-03-14T12:10:38;14.30;58.00
78649;DHT22;67962;47.310;9.642;2023-03-14T12:13:07;14.20;57.30
78649;DHT22;67962;47.310;9.642;2023-03-14T12:15:39;14.20;59.80
78649;DHT22;67962;47.310;9.642;2023-03-14T12:18:26;14.10;59.90
78649;DHT22;67962;47.310;9.642;2023-03-14T12:21:03;14.00;60.50
78649;DHT22;67962;47.310;9.642;2023-03-14T12:23:53;14.00;59.10
78649;DHT22;67962;47.310;9.642;2023-03-14T12:26:22;13.90;60.30
78649;DHT22;67962;47.310;9.642;2023-03-14T12:28:51;13.80;61.60
78649;DHT22;67962;47.310;9.642;2023-03-14T12:47:13;13.20;63.70
78649;DHT22;67962;47.310;9.642;2023-03-14T12:49:40;13.10;64.50
78649;DHT22;67962;47.310;9.642;2023-03-14T12:52:14;13.00;64.40
78649;DHT22;67962;47.310;9.642;2023-03-14T12:57:32;12.70;63.30
78649;DHT22;67962;47.310;9.642;2023-03-14T13:00:00;12.50;62.00
78649;DHT22;67962;47.310;9.642;2023-03-14T13:02:29;12.30;62.40
78649;DHT22;67962;47.310;9.642;2023-03-14T13:05:27;12.20;63.20
78649;DHT22;67962;47.310;9.642;2023-03-14T13:10:30;12.00;63.60
78649;DHT22;67962;47.310;9.642;2023-03-14T13:13:19;11.90;64.60
78649;DHT22;67962;47.310;9.642;2023-03-14T13:15:47;11.90;65.90
78649;DHT22;67962;47.310;9.642;2023-03-14T13:18:30;11.80;64.90
78649;DHT22;67962;47.310;9.642;2023-03-14T13:21:19;11.80;61.80
78649;DHT22;67962;47.310;9.642;2023-03-14T13:26:21;11.50;61.60
78649;DHT22;67962;47.310;9.642;2023-03-14T13:28:48;11.40;62.90
78649;DHT22;67962;47.310;9.642;2023-03-14T13:31:25;11.50;62.60
78649;DHT22;67962;47.310;9.642;2023-03-14T13:33:58;11.60;61.60
78649;DHT22;67962;47.310;9.642;2023-03-14T13:36:25;11.70;61.80
78649;DHT22;67962;47.310;9.642;2023-03-14T13:38:57;11.80;62.30
78649;DHT22;67962;47.310;9.642;2023-03-14T13:41:24;11.80;62.50
78649;DHT22;67962;47.310;9.642;2023-03-14T13:43:49;11.80;63.90
78649;DHT22;67962;47.310;9.642;2023-03-14T13:46:20;11.60;63.00
78649;DHT22;67962;47.310;9.642;2023-03-14T13:48:49;11.60;64.00
78649;DHT22;67962;47.310;9.642;2023-03-14T13:51:19;11.60;66.00
78649;DHT22;67962;47.310;9.642;2023-03-14T13:53:54;11.60;64.60
78649;DHT22;67962;47.310;9.642;2023-03-14T13:56:22;11.40;62.60
78649;DHT22;67962;47.310;9.642;2023-03-14T13:58:49;11.50;61.10
78649;DHT22;67962;47.310;9.642;2023-03-14T14:03:48;11.70;61.10
78649;DHT22;67962;47.310;9.642;2023-03-14T14:09:11;11.60;59.10
78649;DHT22;67962;47.310;9.642;2023-03-14T14:14:21;11.70;57.90
78649;DHT22;67962;47.310;9.642;2023-03-14T14:16:48;11.60;57.30
78649;DHT22;67962;47.310;9.642;2023-03-14T14:19:15;11.50;58.30
78649;DHT22;67962;47.310;9.642;2023-03-14T14:21:42;11.30;58.10
78649;DHT22;67962;47.310;9.642;2023-03-14T14:24:15;11.30;57.80
78649;DHT22;67962;47.310;9.642;2023-03-14T14:26:47;11.20;58.90
78649;DHT22;67962;47.310;9.642;2023-03-14T14:29:27;11.00;56.80
78649;DHT22;67962;47.310;9.642;2023-03-14T14:32:10;11.00;52.70
78649;DHT22;67962;47.310;9.642;2023-03-14T14:34:44;10.90;54.30
78649;DHT22;67962;47.310;9.642;2023-03-14T14:39:47;10.80;54.20
78649;DHT22;67962;47.310;9.642;2023-03-14T14:42:17;10.70;54.50
78649;DHT22;67962;47.310;9.642;2023-03-14T14:44:44;10.70;55.40
78649;DHT22;67962;47.310;9.642;2023-03-14T14:47:14;10.60;53.70
78649;DHT22;67962;47.310;9.642;2023-03-14T14:49:41;10.50;54.40
78649;DHT22;67962;47.310;9.642;2023-03-14T14:52:17;10.50;56.60
78649;DHT22;67962;47.310;9.642;2023-03-14T14:54:50;10.50;55.80
78649;DHT22;67962;47.310;9.642;2023-03-14T14:57:24;10.60;52.50
78649;DHT22;67962;47.310;9.642;2023-03-14T14:59:50;10.60;54.50
78649;DHT22;67962;47.310;9.642;2023-03-14T15:04:53;10.80;53.80
78649;DHT22;67962;47.310;9.642;2023-03-14T15:07:19;11.00;53.50
78649;DHT22;67962;47.310;9.642;2023-03-14T15:09:45;11.10;57.20
78649;DHT22;67962;47.310;9.642;2023-03-14T15:12:10;11.20;56.10
78649;DHT22;67962;47.310;9.642;2023-03-14T15:14:36;11.20;55.10
78649;DHT22;67962;47.310;9.642;2023-03-14T15:17:02;11.10;54.20
78649;DHT22;67962;47.310;9.642;2023-03-14T15:19:28;11.00;55.20
78649;DHT22;67962;47.310;9.642;2023-03-14T15:21:58;10.90;56.40
78649;DHT22;67962;47.310;9.642;2023-03-14T15:24:24;11.00;55.60
78649;DHT22;67962;47.310;9.642;2023-03-14T15:26:50;11.00;50.70
78649;DHT22;67962;47.310;9.642;2023-03-14T15:29:16;11.10;52.80
78649;DHT22;67962;47.310;9.642;2023-03-14T15:31:42;11.10;54.20
78649;DHT22;67962;47.310;9.642;2023-03-14T15:34:11;11.00;56.00
78649;DHT22;67962;47.310;9.642;2023-03-14T15:36:37;10.70;56.90
78649;DHT22;67962;47.310;9.642;2023-03-14T15:39:05;10.60;57.10
78649;DHT22;67962;47.310;9.642;2023-03-14T15:41:31;10.70;56.10
78649;DHT22;67962;47.310;9.642;2023-03-14T15:43:57;10.70;56.60
78649;DHT22;67962;47.310;9.642;2023-03-14T15:46:22;10.50;54.70
78649;DHT22;67962;47.310;9.642;2023-03-14T15:48:50;10.50;50.60
78649;DHT22;67962;47.310;9.642;2023-03-14T15:51:16;10.50;53.60
78649;DHT22;67962;47.310;9.642;2023-03-14T15:53:42;10.50;55.10
78649;DHT22;67962;47.310;9.642;2023-03-14T15:56:14;10.40;55.00
78649;DHT22;67962;47.310;9.642;2023-03-14T15:58:41;10.40;54.40
78649;DHT22;67962;47.310;9.642;2023-03-14T16:01:07;10.30;54.00
78649;DHT22;67962;47.310;9.642;2023-03-14T16:03:36;10.30;52.70
78649;DHT22;67962;47.310;9.642;2023-03-14T16:06:02;10.30;50.10
78649;DHT22;67962;47.310;9.642;2023-03-14T16:08:28;10.30;52.70
78649;DHT22;67962;47.310;9.642;2023-03-14T16:10:59;10.40;53.00
78649;DHT22;67962;47.310;9.642;2023-03-14T16:13:26;10.50;51.90
78649;DHT22;67962;47.310;9.642;2023-03-14T16:16:03;10.40;52.10
78649;DHT22;67962;47.310;9.642;2023-03-14T16:18:32;10.50;52.50
78649;DHT22;67962;47.310;9.642;2023-03-14T16:21:00;10.60;51.50
78649;DHT22;67962;47.310;9.642;2023-03-14T16:23:27;10.60;52.50
78649;DHT22;67962;47.310;9.642;2023-03-14T16:25:54;10.60;52.30
78649;DHT22;67962;47.310;9.642;2023-03-14T16:28:21;10.60;51.20
78649;DHT22;67962;47.310;9.642;2023-03-14T16:30:47;10.50;49.80
78649;DHT22;67962;47.310;9.642;2023-03-14T16:33:14;10.50;49.90
78649;DHT22;67962;47.310;9.642;2023-03-14T16:35:40;10.50;51.10
78649;DHT22;67962;47.310;9.642;2023-03-14T16:38:06;10.40;52.60
78649;DHT22;67962;47.310;9.642;2023-03-14T16:40:32;10.50;52.20
78649;DHT22;67962;47.310;9.642;2023-03-14T16:42:58;10.50;48.40
78649;DHT22;67962;47.310;9.642;2023-03-14T16:45:24;10.60;51.60
78649;DHT22;67962;47.310;9.642;2023-03-14T16:47:49;10.60;51.30
78649;DHT22;67962;47.310;9.642;2023-03-14T16:50:15;10.50;51.30
78649;DHT22;67962;47.310;9.642;2023-03-14T16:52:41;10.50;52.80
78649;DHT22;67962;47.310;9.642;2023-03-14T16:55:09;10.30;53.10